sensor_id;sensor_type;location;lat;lon;timestamp;P1;durP1;ratioP1;P2;durP2;ratioP2
29662;SDS011;16578;53.266;7.920;2023-07-13T00:01:37;2.67;;;1.92;;
29662;SDS011;16578;53.266;7.920;2023-07-13T00:04:03;3.90;;;2.20;;
29662;SDS011;16578;53.266;7.920;2023-07-13T00:06:29;4.53;;;1.88;;
29662;SDS011;16578;53.266;7.920;2023-07-13T00:08:58;3.15;;;1.95;;
29662;SDS011;16578;53.266;7.920;2023-07-13T00:11:24;2.30;;;1.58;;
29662;SDS011;16578;53.266;7.920;2023-07-13T00:13:50;5.03;;;2.00;;
29662;SDS011;16578;53.266;7.920;2023-07-13T00:16:16;3.72;;;2.25;;
29662;SDS011;16578;53.266;7.920;2023-07-13T00:18:43;2.15;;;1.63;;
29662;SDS011;16578;53.266;7.920;2023-07-13T00:21:09;3.42;;;1.88;;
29662;SDS011;16578;53.266;7.920;2023-07-13T00:23:36;3.33;;;2.10;;
29662;SDS011;16578;53.266;7.920;2023-07-13T00:26:06;3.50;;;2.10;;
29662;SDS011;16578;53.266;7.920;2023-07-13T00:28:34;4.03;;;2.23;;
29662;SDS011;16578;53.266;7.920;2023-07-13T00:31:00;2.83;;;2.42;;
29662;SDS011;16578;53.266;7.920;2023-07-13T00:33:29;3.70;;;2.40;;
29662;SDS011;16578;53.266;7.920;2023-07-13T00:38:21;7.97;;;2.30;;
29662;SDS011;16578;53.266;7.920;2023-07-13T00:40:47;3.80;;;2.28;;
29662;SDS011;16578;53.266;7.920;2023-07-13T00:43:22;2.92;;;2.10;;
29662;SDS011;16578;53.266;7.920;2023-07-13T00:48:15;5.22;;;2.53;;
29662;SDS011;16578;53.266;7.920;2023-07-13T00:50:45;4.85;;;2.53;;
29662;SDS011;16578;53.266;7.920;2023-07-13T00:55:39;3.83;;;2.63;;
29662;SDS011;16578;53.266;7.920;2023-07-13T00:58:05;3.85;;;2.30;;
29662;SDS011;16578;53.266;7.920;2023-07-13T01:00:31;3.67;;;2.30;;
29662;SDS011;16578;53.266;7.920;2023-07-13T01:03:01;4.80;;;2.45;;
29662;SDS011;16578;53.266;7.920;2023-07-13T01:05:29;5.82;;;2.80;;
29662;SDS011;16578;53.266;7.920;2023-07-13T01:07:57;4.47;;;2.50;;
29662;SDS011;16578;53.266;7.920;2023-07-13T01:10:23;4.50;;;2.40;;
29662;SDS011;16578;53.266;7.920;2023-07-13T01:12:50;3.13;;;2.60;;
29662;SDS011;16578;53.266;7.920;2023-07-13T01:15:36;4.53;;;2.13;;
29662;SDS011;16578;53.266;7.920;2023-07-13T01:18:02;5.00;;;2.28;;
29662;SDS011;16578;53.266;7.920;2023-07-13T01:20:29;3.15;;;2.42;;
29662;SDS011;16578;53.266;7.920;2023-07-13T01:22:54;5.80;;;2.60;;
29662;SDS011;16578;53.266;7.920;2023-07-13T01:25:20;4.35;;;2.40;;
29662;SDS011;16578;53.266;7.920;2023-07-13T01:27:46;3.20;;;2.40;;
29662;SDS011;16578;53.266;7.920;2023-07-13T01:30:12;3.65;;;2.20;;
29662;SDS011;16578;53.266;7.920;2023-07-13T01:32:38;9.77;;;2.30;;
29662;SDS011;16578;53.266;7.920;2023-07-13T01:35:06;3.28;;;2.15;;
29662;SDS011;16578;53.266;7.920;2023-07-13T01:37:32;4.60;;;2.20;;
29662;SDS011;16578;53.266;7.920;2023-07-13T01:40:00;4.68;;;2.33;;
29662;SDS011;16578;53.266;7.920;2023-07-13T01:42:28;4.95;;;2.20;;
29662;SDS011;16578;53.266;7.920;2023-07-13T01:44:54;4.63;;;2.33;;
29662;SDS011;16578;53.266;7.920;2023-07-13T01:47:19;4.50;;;2.42;;
29662;SDS011;16578;53.266;7.920;2023-07-13T01:49:45;4.68;;;2.15;;
29662;SDS011;16578;53.266;7.920;2023-07-13T01:52:12;4.57;;;2.05;;
29662;SDS011;16578;53.266;7.920;2023-07-13T01:54:37;5.28;;;2.28;;
29662;SDS011;16578;53.266;7.920;2023-07-13T01:57:03;5.88;;;2.22;;
29662;SDS011;16578;53.266;7.920;2023-07-13T01:59:29;6.43;;;2.47;;
29662;SDS011;16578;53.266;7.920;2023-07-13T02:01:54;3.30;;;1.88;;
29662;SDS011;16578;53.266;7.920;2023-07-13T02:04:20;3.33;;;2.13;;
29662;SDS011;16578;53.266;7.920;2023-07-13T02:06:45;5.63;;;2.40;;
29662;SDS011;16578;53.266;7.920;2023-07-13T02:09:11;5.22;;;2.40;;
29662;SDS011;16578;53.266;7.920;2023-07-13T02:11:37;3.95;;;2.05;;
29662;SDS011;16578;53.266;7.920;2023-07-13T02:14:02;4.88;;;2.13;;
29662;SDS011;16578;53.266;7.920;2023-07-13T02:16:29;5.80;;;2.25;;
29662;SDS011;16578;53.266;7.920;2023-07-13T02:18:55;9.45;;;3.13;;
29662;SDS011;16578;53.266;7.920;2023-07-13T02:21:21;5.70;;;1.98;;
29662;SDS011;16578;53.266;7.920;2023-07-13T02:23:48;7.78;;;2.33;;
29662;SDS011;16578;53.266;7.920;2023-07-13T02:26:14;4.20;;;2.30;;
29662;SDS011;16578;53.266;7.920;2023-07-13T02:28:40;5.95;;;2.47;;
29662;SDS011;16578;53.266;7.920;2023-07-13T02:31:09;4.30;;;2.25;;
29662;SDS011;16578;53.266;7.920;2023-07-13T02:33:37;5.00;;;2.25;;
29662;SDS011;16578;53.266;7.920;2023-07-13T02:36:03;5.60;;;2.70;;
29662;SDS011;16578;53.266;7.920;2023-07-13T02:38:30;6.88;;;2.45;;
29662;SDS011;16578;53.266;7.920;2023-07-13T02:40:58;7.10;;;2.65;;
29662;SDS011;16578;53.266;7.920;2023-07-13T02:43:24;7.18;;;3.05;;
29662;SDS011;16578;53.266;7.920;2023-07-13T02:45:50;5.22;;;2.45;;
29662;SDS011;16578;53.266;7.920;2023-07-13T02:48:16;7.15;;;2.13;;
29662;SDS011;16578;53.266;7.920;2023-07-13T02:50:41;9.07;;;3.00;;
29662;SDS011;16578;53.266;7.920;2023-07-13T02:53:08;10.43;;;3.08;;
29662;SDS011;16578;53.266;7.920;2023-07-13T02:55:34;5.60;;;2.33;;
29662;SDS011;16578;53.266;7.920;2023-07-13T02:57:59;6.80;;;2.53;;
29662;SDS011;16578;53.266;7.920;2023-07-13T03:00:26;6.35;;;2.30;;
29662;SDS011;16578;53.266;7.920;2023-07-13T03:02:52;5.93;;;2.50;;
29662;SDS011;16578;53.266;7.920;2023-07-13T03:05:18;7.43;;;2.47;;
29662;SDS011;16578;53.266;7.920;2023-07-13T03:07:44;10.15;;;3.30;;
29662;SDS011;16578;53.266;7.920;2023-07-13T03:10:09;5.65;;;2.58;;
29662;SDS011;16578;53.266;7.920;2023-07-13T03:12:35;9.35;;;2.33;;
29662;SDS011;16578;53.266;7.920;2023-07-13T03:15:00;4.57;;;2.25;;
29662;SDS011;16578;53.266;7.920;2023-07-13T03:17:26;7.82;;;2.15;;
29662;SDS011;16578;53.266;7.920;2023-07-13T03:19:52;11.02;;;2.50;;
29662;SDS011;16578;53.266;7.920;2023-07-13T03:22:17;9.45;;;2.63;;
29662;SDS011;16578;53.266;7.920;2023-07-13T03:24:43;8.20;;;2.60;;
29662;SDS011;16578;53.266;7.920;2023-07-13T03:27:09;8.27;;;3.05;;
29662;SDS011;16578;53.266;7.920;2023-07-13T03:29:35;8.73;;;2.38;;
29662;SDS011;16578;53.266;7.920;2023-07-13T03:32:00;6.55;;;2.55;;
29662;SDS011;16578;53.266;7.920;2023-07-13T03:34:26;4.72;;;2.20;;
29662;SDS011;16578;53.266;7.920;2023-07-13T03:36:53;4.47;;;2.33;;
29662;SDS011;16578;53.266;7.920;2023-07-13T03:39:20;4.97;;;2.38;;
29662;SDS011;16578;53.266;7.920;2023-07-13T03:41:46;7.15;;;2.40;;
29662;SDS011;16578;53.266;7.920;2023-07-13T03:44:11;10.75;;;2.83;;
29662;SDS011;16578;53.266;7.920;2023-07-13T03:46:37;4.43;;;2.33;;
29662;SDS011;16578;53.266;7.920;2023-07-13T03:49:03;5.97;;;2.42;;
29662;SDS011;16578;53.266;7.920;2023-07-13T03:51:30;8.38;;;2.78;;
29662;SDS011;16578;53.266;7.920;2023-07-13T03:53:56;6.82;;;2.60;;
29662;SDS011;16578;53.266;7.920;2023-07-13T03:56:21;10.00;;;2.95;;
29662;SDS011;16578;53.266;7.920;2023-07-13T03:58:48;7.22;;;2.85;;
29662;SDS011;16578;53.266;7.920;2023-07-13T04:01:15;7.20;;;2.75;;
29662;SDS011;16578;53.266;7.920;2023-07-13T04:03:42;6.80;;;2.75;;
29662;SDS011;16578;53.266;7.920;2023-07-13T04:06:12;7.88;;;2.83;;
29662;SDS011;16578;53.266;7.920;2023-07-13T04:08:46;7.57;;;2.63;;
29662;SDS011;16578;53.266;7.920;2023-07-13T04:11:20;7.53;;;2.78;;
29662;SDS011;16578;53.266;7.920;2023-07-13T04:13:48;8.80;;;3.10;;
29662;SDS011;16578;53.266;7.920;2023-07-13T04:16:14;8.38;;;2.80;;
29662;SDS011;16578;53.266;7.920;2023-07-13T04:18:40;7.38;;;2.25;;
29662;SDS011;16578;53.266;7.920;2023-07-13T04:21:06;6.10;;;2.70;;
29662;SDS011;16578;53.266;7.920;2023-07-13T04:23:33;7.00;;;2.67;;
29662;SDS011;16578;53.266;7.920;2023-07-13T04:25:59;6.22;;;2.45;;
29662;SDS011;16578;53.266;7.920;2023-07-13T04:28:25;7.55;;;2.60;;
29662;SDS011;16578;53.266;7.920;2023-07-13T04:30:51;7.47;;;2.97;;
29662;SDS011;16578;53.266;7.920;2023-07-13T04:33:17;6.85;;;2.63;;
29662;SDS011;16578;53.266;7.920;2023-07-13T04:35:45;6.47;;;2.65;;
29662;SDS011;16578;53.266;7.920;2023-07-13T04:38:14;5.90;;;2.72;;
29662;SDS011;16578;53.266;7.920;2023-07-13T04:40:42;8.52;;;3.03;;
29662;SDS011;16578;53.266;7.920;2023-07-13T04:43:09;4.28;;;2.40;;
29662;SDS011;16578;53.266;7.920;2023-07-13T04:45:35;8.75;;;2.70;;
29662;SDS011;16578;53.266;7.920;2023-07-13T04:48:01;6.75;;;2.80;;
29662;SDS011;16578;53.266;7.920;2023-07-13T04:50:27;6.70;;;2.78;;
29662;SDS011;16578;53.266;7.920;2023-07-13T04:52:52;8.30;;;3.17;;
29662;SDS011;16578;53.266;7.920;2023-07-13T04:55:18;6.70;;;2.92;;
29662;SDS011;16578;53.266;7.920;2023-07-13T04:57:45;9.43;;;2.78;;
29662;SDS011;16578;53.266;7.920;2023-07-13T05:00:11;13.52;;;3.03;;
29662;SDS011;16578;53.266;7.920;2023-07-13T05:02:38;8.95;;;3.28;;
29662;SDS011;16578;53.266;7.920;2023-07-13T05:05:04;5.63;;;2.85;;
29662;SDS011;16578;53.266;7.920;2023-07-13T05:07:30;7.68;;;2.72;;
29662;SDS011;16578;53.266;7.920;2023-07-13T05:09:57;8.20;;;2.53;;
29662;SDS011;16578;53.266;7.920;2023-07-13T05:12:26;11.68;;;3.42;;
29662;SDS011;16578;53.266;7.920;2023-07-13T05:14:52;7.68;;;3.03;;
29662;SDS011;16578;53.266;7.920;2023-07-13T05:17:18;6.63;;;3.10;;
29662;SDS011;16578;53.266;7.920;2023-07-13T05:19:43;8.40;;;2.72;;
29662;SDS011;16578;53.266;7.920;2023-07-13T05:22:09;7.45;;;3.30;;
29662;SDS011;16578;53.266;7.920;2023-07-13T05:24:34;9.65;;;3.13;;
29662;SDS011;16578;53.266;7.920;2023-07-13T05:27:00;6.47;;;2.33;;
29662;SDS011;16578;53.266;7.920;2023-07-13T05:29:25;5.47;;;2.67;;
29662;SDS011;16578;53.266;7.920;2023-07-13T05:31:51;6.60;;;2.97;;
29662;SDS011;16578;53.266;7.920;2023-07-13T05:34:17;5.93;;;2.60;;
29662;SDS011;16578;53.266;7.920;2023-07-13T05:36:42;4.43;;;2.85;;
29662;SDS011;16578;53.266;7.920;2023-07-13T05:39:08;6.35;;;3.30;;
29662;SDS011;16578;53.266;7.920;2023-07-13T05:41:35;7.10;;;3.10;;
29662;SDS011;16578;53.266;7.920;2023-07-13T05:44:01;9.27;;;3.10;;
29662;SDS011;16578;53.266;7.920;2023-07-13T05:46:26;7.40;;;3.00;;
29662;SDS011;16578;53.266;7.920;2023-07-13T05:48:52;7.88;;;3.17;;
29662;SDS011;16578;53.266;7.920;2023-07-13T05:51:17;6.07;;;2.65;;
29662;SDS011;16578;53.266;7.920;2023-07-13T05:53:43;7.93;;;2.58;;
29662;SDS011;16578;53.266;7.920;2023-07-13T05:56:08;7.80;;;3.10;;
29662;SDS011;16578;53.266;7.920;2023-07-13T05:58:34;10.10;;;3.05;;
29662;SDS011;16578;53.266;7.920;2023-07-13T06:01:04;9.23;;;3.80;;
29662;SDS011;16578;53.266;7.920;2023-07-13T06:03:33;8.35;;;3.45;;
29662;SDS011;16578;53.266;7.920;2023-07-13T06:05:59;7.20;;;2.65;;
29662;SDS011;16578;53.266;7.920;2023-07-13T06:08:25;6.07;;;3.00;;
29662;SDS011;16578;53.266;7.920;2023-07-13T06:10:51;9.38;;;3.50;;
29662;SDS011;16578;53.266;7.920;2023-07-13T06:13:17;9.23;;;3.03;;
29662;SDS011;16578;53.266;7.920;2023-07-13T06:15:47;7.88;;;3.03;;
29662;SDS011;16578;53.266;7.920;2023-07-13T06:18:14;9.75;;;3.22;;
29662;SDS011;16578;53.266;7.920;2023-07-13T06:20:39;6.55;;;3.25;;
29662;SDS011;16578;53.266;7.920;2023-07-13T06:23:05;8.32;;;3.42;;
29662;SDS011;16578;53.266;7.920;2023-07-13T06:25:30;12.75;;;3.38;;
29662;SDS011;16578;53.266;7.920;2023-07-13T06:27:56;6.90;;;3.20;;
29662;SDS011;16578;53.266;7.920;2023-07-13T06:30:22;10.00;;;3.70;;
29662;SDS011;16578;53.266;7.920;2023-07-13T06:32:47;7.80;;;3.25;;
29662;SDS011;16578;53.266;7.920;2023-07-13T06:35:13;10.13;;;3.33;;
29662;SDS011;16578;53.266;7.920;2023-07-13T06:37:38;6.40;;;3.10;;
29662;SDS011;16578;53.266;7.920;2023-07-13T06:40:04;7.13;;;3.15;;
29662;SDS011;16578;53.266;7.920;2023-07-13T06:42:31;9.02;;;3.60;;
29662;SDS011;16578;53.266;7.920;2023-07-13T06:44:56;8.93;;;3.80;;
29662;SDS011;16578;53.266;7.920;2023-07-13T06:47:22;8.25;;;3.17;;
29662;SDS011;16578;53.266;7.920;2023-07-13T06:49:47;8.88;;;3.55;;
29662;SDS011;16578;53.266;7.920;2023-07-13T06:52:13;6.45;;;3.28;;
29662;SDS011;16578;53.266;7.920;2023-07-13T06:54:39;9.82;;;3.58;;
29662;SDS011;16578;53.266;7.920;2023-07-13T06:57:04;11.38;;;3.47;;
29662;SDS011;16578;53.266;7.920;2023-07-13T06:59:30;6.15;;;3.00;;
29662;SDS011;16578;53.266;7.920;2023-07-13T07:01:55;9.40;;;3.97;;
29662;SDS011;16578;53.266;7.920;2023-07-13T07:04:21;7.05;;;2.95;;
29662;SDS011;16578;53.266;7.920;2023-07-13T07:06:47;7.55;;;3.30;;
29662;SDS011;16578;53.266;7.920;2023-07-13T07:09:12;5.18;;;3.08;;
29662;SDS011;16578;53.266;7.920;2023-07-13T07:11:38;5.95;;;3.45;;
29662;SDS011;16578;53.266;7.920;2023-07-13T07:14:04;6.38;;;3.33;;
29662;SDS011;16578;53.266;7.920;2023-07-13T07:16:30;9.35;;;3.60;;
29662;SDS011;16578;53.266;7.920;2023-07-13T07:18:55;8.27;;;4.07;;
29662;SDS011;16578;53.266;7.920;2023-07-13T07:21:21;8.88;;;3.10;;
29662;SDS011;16578;53.266;7.920;2023-07-13T07:23:48;6.47;;;2.67;;
29662;SDS011;16578;53.266;7.920;2023-07-13T07:26:13;9.98;;;3.10;;
29662;SDS011;16578;53.266;7.920;2023-07-13T07:28:39;9.10;;;3.17;;
29662;SDS011;16578;53.266;7.920;2023-07-13T07:31:05;8.38;;;2.90;;
29662;SDS011;16578;53.266;7.920;2023-07-13T07:33:31;7.10;;;2.97;;
29662;SDS011;16578;53.266;7.920;2023-07-13T07:35:58;6.07;;;2.92;;
29662;SDS011;16578;53.266;7.920;2023-07-13T07:38:23;6.15;;;3.20;;
29662;SDS011;16578;53.266;7.920;2023-07-13T07:40:49;6.60;;;2.97;;
29662;SDS011;16578;53.266;7.920;2023-07-13T07:43:14;8.88;;;3.38;;
29662;SDS011;16578;53.266;7.920;2023-07-13T07:45:40;5.15;;;3.05;;
29662;SDS011;16578;53.266;7.920;2023-07-13T07:48:06;9.00;;;3.50;;
29662;SDS011;16578;53.266;7.920;2023-07-13T07:50:32;8.00;;;3.03;;
29662;SDS011;16578;53.266;7.920;2023-07-13T07:52:58;6.50;;;3.05;;
29662;SDS011;16578;53.266;7.920;2023-07-13T07:55:24;8.10;;;3.15;;
29662;SDS011;16578;53.266;7.920;2023-07-13T07:57:53;8.27;;;3.13;;
29662;SDS011;16578;53.266;7.920;2023-07-13T08:00:19;7.32;;;2.60;;
29662;SDS011;16578;53.266;7.920;2023-07-13T08:02:44;8.98;;;3.10;;
29662;SDS011;16578;53.266;7.920;2023-07-13T08:05:10;5.10;;;2.85;;
29662;SDS011;16578;53.266;7.920;2023-07-13T08:07:36;8.60;;;3.13;;
29662;SDS011;16578;53.266;7.920;2023-07-13T08:10:03;8.40;;;2.92;;
29662;SDS011;16578;53.266;7.920;2023-07-13T08:12:29;5.38;;;2.55;;
29662;SDS011;16578;53.266;7.920;2023-07-13T08:14:54;5.95;;;2.15;;
29662;SDS011;16578;53.266;7.920;2023-07-13T08:17:22;5.03;;;2.53;;
29662;SDS011;16578;53.266;7.920;2023-07-13T08:19:49;8.48;;;2.83;;
29662;SDS011;16578;53.266;7.920;2023-07-13T08:22:14;5.30;;;2.40;;
29662;SDS011;16578;53.266;7.920;2023-07-13T08:24:40;7.30;;;3.08;;
29662;SDS011;16578;53.266;7.920;2023-07-13T08:27:07;5.80;;;2.22;;
29662;SDS011;16578;53.266;7.920;2023-07-13T08:29:33;4.95;;;2.40;;
29662;SDS011;16578;53.266;7.920;2023-07-13T08:31:59;5.45;;;2.10;;
29662;SDS011;16578;53.266;7.920;2023-07-13T08:34:24;5.38;;;2.30;;
29662;SDS011;16578;53.266;7.920;2023-07-13T08:36:50;8.48;;;2.28;;
29662;SDS011;16578;53.266;7.920;2023-07-13T08:39:15;5.82;;;2.50;;
29662;SDS011;16578;53.266;7.920;2023-07-13T08:41:41;4.03;;;2.10;;
29662;SDS011;16578;53.266;7.920;2023-07-13T08:46:46;5.35;;;2.35;;
29662;SDS011;16578;53.266;7.920;2023-07-13T08:49:18;6.72;;;2.40;;
29662;SDS011;16578;53.266;7.920;2023-07-13T08:54:38;4.45;;;2.17;;
29662;SDS011;16578;53.266;7.920;2023-07-13T08:57:13;3.58;;;2.00;;
29662;SDS011;16578;53.266;7.920;2023-07-13T08:59:44;4.72;;;2.08;;
29662;SDS011;16578;53.266;7.920;2023-07-13T09:04:58;5.07;;;2.20;;
29662;SDS011;16578;53.266;7.920;2023-07-13T09:10:31;5.35;;;2.22;;
29662;SDS011;16578;53.266;7.920;2023-07-13T09:15:49;4.85;;;2.15;;
29662;SDS011;16578;53.266;7.920;2023-07-13T09:18:23;5.30;;;2.25;;
29662;SDS011;16578;53.266;7.920;2023-07-13T09:21:02;6.95;;;2.28;;
29662;SDS011;16578;53.266;7.920;2023-07-13T09:28:44;3.53;;;1.92;;
29662;SDS011;16578;53.266;7.920;2023-07-13T09:31:16;6.95;;;2.30;;
29662;SDS011;16578;53.266;7.920;2023-07-13T09:33:48;5.82;;;2.20;;
29662;SDS011;16578;53.266;7.920;2023-07-13T09:36:29;6.68;;;2.08;;
29662;SDS011;16578;53.266;7.920;2023-07-13T09:39:09;4.25;;;2.20;;
29662;SDS011;16578;53.266;7.920;2023-07-13T09:42:01;5.10;;;1.85;;
29662;SDS011;16578;53.266;7.920;2023-07-13T09:44:39;3.60;;;2.35;;
29662;SDS011;16578;53.266;7.920;2023-07-13T09:47:16;7.10;;;2.60;;
29662;SDS011;16578;53.266;7.920;2023-07-13T09:49:58;4.15;;;2.17;;
29662;SDS011;16578;53.266;7.920;2023-07-13T09:52:27;4.03;;;2.10;;
29662;SDS011;16578;53.266;7.920;2023-07-13T09:55:03;6.13;;;2.13;;
29662;SDS011;16578;53.266;7.920;2023-07-13T09:57:29;5.30;;;2.30;;
29662;SDS011;16578;53.266;7.920;2023-07-13T09:59:55;6.20;;;2.35;;
29662;SDS011;16578;53.266;7.920;2023-07-13T10:02:24;12.32;;;2.28;;
29662;SDS011;16578;53.266;7.920;2023-07-13T10:04:59;6.97;;;2.40;;
29662;SDS011;16578;53.266;7.920;2023-07-13T10:07:30;4.78;;;2.33;;
29662;SDS011;16578;53.266;7.920;2023-07-13T10:09:57;5.63;;;2.40;;
29662;SDS011;16578;53.266;7.920;2023-07-13T10:12:26;3.50;;;1.90;;
29662;SDS011;16578;53.266;7.920;2023-07-13T10:14:56;3.67;;;1.80;;
29662;SDS011;16578;53.266;7.920;2023-07-13T10:17:30;2.03;;;1.83;;
29662;SDS011;16578;53.266;7.920;2023-07-13T10:20:01;3.45;;;1.88;;
29662;SDS011;16578;53.266;7.920;2023-07-13T10:22:31;2.72;;;1.90;;
29662;SDS011;16578;53.266;7.920;2023-07-13T10:25:15;6.15;;;1.80;;
29662;SDS011;16578;53.266;7.920;2023-07-13T10:27:43;4.55;;;1.88;;
29662;SDS011;16578;53.266;7.920;2023-07-13T10:30:12;2.92;;;1.67;;
29662;SDS011;16578;53.266;7.920;2023-07-13T10:32:45;2.13;;;1.48;;
29662;SDS011;16578;53.266;7.920;2023-07-13T10:35:13;2.85;;;1.58;;
29662;SDS011;16578;53.266;7.920;2023-07-13T10:40:13;2.00;;;1.30;;
29662;SDS011;16578;53.266;7.920;2023-07-13T10:42:42;2.22;;;1.40;;
29662;SDS011;16578;53.266;7.920;2023-07-13T10:45:15;3.17;;;1.80;;
29662;SDS011;16578;53.266;7.920;2023-07-13T10:47:43;3.72;;;1.58;;
29662;SDS011;16578;53.266;7.920;2023-07-13T10:50:23;1.98;;;1.70;;
29662;SDS011;16578;53.266;7.920;2023-07-13T10:52:53;3.47;;;1.92;;
29662;SDS011;16578;53.266;7.920;2023-07-13T10:55:31;1.98;;;1.50;;
29662;SDS011;16578;53.266;7.920;2023-07-13T10:57:59;3.33;;;1.70;;
29662;SDS011;16578;53.266;7.920;2023-07-13T11:00:26;4.90;;;2.03;;
29662;SDS011;16578;53.266;7.920;2023-07-13T11:02:56;3.65;;;1.75;;
29662;SDS011;16578;53.266;7.920;2023-07-13T11:07:54;2.58;;;1.60;;
29662;SDS011;16578;53.266;7.920;2023-07-13T11:10:46;3.00;;;1.70;;
29662;SDS011;16578;53.266;7.920;2023-07-13T11:16:01;3.00;;;1.70;;
29662;SDS011;16578;53.266;7.920;2023-07-13T11:18:38;2.78;;;1.80;;
29662;SDS011;16578;53.266;7.920;2023-07-13T11:21:13;3.40;;;1.67;;
29662;SDS011;16578;53.266;7.920;2023-07-13T11:23:41;2.22;;;1.67;;
29662;SDS011;16578;53.266;7.920;2023-07-13T11:31:34;2.13;;;1.58;;
29662;SDS011;16578;53.266;7.920;2023-07-13T11:34:00;2.00;;;1.63;;
29662;SDS011;16578;53.266;7.920;2023-07-13T11:36:29;2.70;;;1.70;;
29662;SDS011;16578;53.266;7.920;2023-07-13T11:41:26;5.28;;;1.85;;
29662;SDS011;16578;53.266;7.920;2023-07-13T11:44:01;2.30;;;1.70;;
29662;SDS011;16578;53.266;7.920;2023-07-13T11:46:36;1.90;;;1.63;;
29662;SDS011;16578;53.266;7.920;2023-07-13T11:49:04;2.28;;;1.55;;
29662;SDS011;16578;53.266;7.920;2023-07-13T11:51:32;1.50;;;1.40;;
29662;SDS011;16578;53.266;7.920;2023-07-13T11:54:01;4.18;;;1.90;;
29662;SDS011;16578;53.266;7.920;2023-07-13T11:56:29;2.95;;;1.88;;
29662;SDS011;16578;53.266;7.920;2023-07-13T11:58:57;1.98;;;1.20;;
29662;SDS011;16578;53.266;7.920;2023-07-13T12:01:29;1.98;;;0.95;;
29662;SDS011;16578;53.266;7.920;2023-07-13T12:03:57;0.93;;;0.80;;
29662;SDS011;16578;53.266;7.920;2023-07-13T12:06:29;1.48;;;0.98;;
29662;SDS011;16578;53.266;7.920;2023-07-13T12:09:00;1.15;;;0.90;;
29662;SDS011;16578;53.266;7.920;2023-07-13T12:11:28;1.92;;;1.20;;
29662;SDS011;16578;53.266;7.920;2023-07-13T12:13:55;2.00;;;1.00;;
29662;SDS011;16578;53.266;7.920;2023-07-13T12:16:26;1.85;;;0.85;;
29662;SDS011;16578;53.266;7.920;2023-07-13T12:18:55;1.30;;;0.70;;
29662;SDS011;16578;53.266;7.920;2023-07-13T12:21:22;0.68;;;0.68;;
29662;SDS011;16578;53.266;7.920;2023-07-13T12:23:53;1.17;;;0.75;;
29662;SDS011;16578;53.266;7.920;2023-07-13T12:26:19;2.13;;;1.02;;
29662;SDS011;16578;53.266;7.920;2023-07-13T12:28:51;1.60;;;1.10;;
29662;SDS011;16578;53.266;7.920;2023-07-13T12:31:31;1.48;;;1.20;;
29662;SDS011;16578;53.266;7.920;2023-07-13T12:34:01;1.42;;;1.15;;
29662;SDS011;16578;53.266;7.920;2023-07-13T12:36:38;1.55;;;1.33;;
29662;SDS011;16578;53.266;7.920;2023-07-13T12:39:15;3.55;;;1.35;;
29662;SDS011;16578;53.266;7.920;2023-07-13T12:41:44;1.63;;;1.15;;
29662;SDS011;16578;53.266;7.920;2023-07-13T12:44:11;6.80;;;3.03;;
29662;SDS011;16578;53.266;7.920;2023-07-13T12:46:39;4.72;;;2.40;;
29662;SDS011;16578;53.266;7.920;2023-07-13T12:49:18;3.53;;;1.77;;
29662;SDS011;16578;53.266;7.920;2023-07-13T12:51:49;2.40;;;1.73;;
29662;SDS011;16578;53.266;7.920;2023-07-13T12:54:16;2.88;;;1.52;;
29662;SDS011;16578;53.266;7.920;2023-07-13T12:56:44;2.87;;;1.50;;
29662;SDS011;16578;53.266;7.920;2023-07-13T12:59:18;3.35;;;1.70;;
29662;SDS011;16578;53.266;7.920;2023-07-13T13:01:46;3.45;;;1.92;;
29662;SDS011;16578;53.266;7.920;2023-07-13T13:04:12;2.97;;;1.60;;
29662;SDS011;16578;53.266;7.920;2023-07-13T13:06:38;3.08;;;1.90;;
29662;SDS011;16578;53.266;7.920;2023-07-13T13:09:09;5.13;;;2.30;;
29662;SDS011;16578;53.266;7.920;2023-07-13T13:11:38;2.83;;;1.85;;
29662;SDS011;16578;53.266;7.920;2023-07-13T13:14:05;3.63;;;2.17;;
29662;SDS011;16578;53.266;7.920;2023-07-13T13:16:32;3.13;;;1.92;;
29662;SDS011;16578;53.266;7.920;2023-07-13T13:19:18;4.03;;;2.00;;
29662;SDS011;16578;53.266;7.920;2023-07-13T13:21:52;2.30;;;2.10;;
29662;SDS011;16578;53.266;7.920;2023-07-13T13:24:20;8.98;;;2.92;;
29662;SDS011;16578;53.266;7.920;2023-07-13T13:26:47;3.67;;;2.28;;
29662;SDS011;16578;53.266;7.920;2023-07-13T13:29:18;8.70;;;2.75;;
29662;SDS011;16578;53.266;7.920;2023-07-13T13:31:46;6.85;;;2.83;;
29662;SDS011;16578;53.266;7.920;2023-07-13T13:34:13;11.80;;;3.67;;
29662;SDS011;16578;53.266;7.920;2023-07-13T13:36:40;12.88;;;2.85;;
29662;SDS011;16578;53.266;7.920;2023-07-13T13:39:28;6.80;;;2.75;;
29662;SDS011;16578;53.266;7.920;2023-07-13T13:41:59;4.40;;;2.70;;
29662;SDS011;16578;53.266;7.920;2023-07-13T13:44:25;3.38;;;2.08;;
29662;SDS011;16578;53.266;7.920;2023-07-13T13:46:54;2.70;;;2.13;;
29662;SDS011;16578;53.266;7.920;2023-07-13T13:49:21;3.47;;;1.90;;
29662;SDS011;16578;53.266;7.920;2023-07-13T13:54:16;2.08;;;1.40;;
29662;SDS011;16578;53.266;7.920;2023-07-13T13:56:44;2.75;;;1.85;;
29662;SDS011;16578;53.266;7.920;2023-07-13T13:59:11;3.50;;;1.60;;
29662;SDS011;16578;53.266;7.920;2023-07-13T14:01:37;2.75;;;1.80;;
29662;SDS011;16578;53.266;7.920;2023-07-13T14:04:03;4.57;;;2.50;;
29662;SDS011;16578;53.266;7.920;2023-07-13T14:06:30;5.45;;;2.35;;
29662;SDS011;16578;53.266;7.920;2023-07-13T14:08:57;3.97;;;1.92;;
29662;SDS011;16578;53.266;7.920;2023-07-13T14:11:22;4.63;;;2.78;;
29662;SDS011;16578;53.266;7.920;2023-07-13T14:13:49;3.88;;;2.35;;
29662;SDS011;16578;53.266;7.920;2023-07-13T14:16:18;3.13;;;2.58;;
29662;SDS011;16578;53.266;7.920;2023-07-13T14:18:46;3.90;;;2.20;;
29662;SDS011;16578;53.266;7.920;2023-07-13T14:21:20;3.47;;;2.25;;
29662;SDS011;16578;53.266;7.920;2023-07-13T14:23:46;3.70;;;2.28;;
29662;SDS011;16578;53.266;7.920;2023-07-13T14:26:17;3.15;;;1.88;;
29662;SDS011;16578;53.266;7.920;2023-07-13T14:28:48;3.42;;;2.33;;
29662;SDS011;16578;53.266;7.920;2023-07-13T14:31:25;2.42;;;2.13;;
29662;SDS011;16578;53.266;7.920;2023-07-13T14:33:53;2.42;;;1.63;;
29662;SDS011;16578;53.266;7.920;2023-07-13T14:36:27;2.60;;;1.77;;
29662;SDS011;16578;53.266;7.920;2023-07-13T14:38:57;3.53;;;2.00;;
29662;SDS011;16578;53.266;7.920;2023-07-13T14:41:24;3.10;;;1.90;;
29662;SDS011;16578;53.266;7.920;2023-07-13T14:43:50;4.30;;;2.20;;
29662;SDS011;16578;53.266;7.920;2023-07-13T14:46:49;2.90;;;2.28;;
29662;SDS011;16578;53.266;7.920;2023-07-13T14:49:23;3.33;;;2.25;;
29662;SDS011;16578;53.266;7.920;2023-07-13T14:51:49;3.15;;;2.30;;
29662;SDS011;16578;53.266;7.920;2023-07-13T14:54:15;3.10;;;2.13;;
29662;SDS011;16578;53.266;7.920;2023-07-13T14:56:41;4.45;;;2.08;;
29662;SDS011;16578;53.266;7.920;2023-07-13T14:59:06;3.33;;;1.98;;
29662;SDS011;16578;53.266;7.920;2023-07-13T15:01:33;3.00;;;2.05;;
29662;SDS011;16578;53.266;7.920;2023-07-13T15:04:00;4.30;;;2.47;;
29662;SDS011;16578;53.266;7.920;2023-07-13T15:06:26;3.05;;;2.03;;
29662;SDS011;16578;53.266;7.920;2023-07-13T15:08:52;2.67;;;2.03;;
29662;SDS011;16578;53.266;7.920;2023-07-13T15:11:17;3.97;;;2.00;;
29662;SDS011;16578;53.266;7.920;2023-07-13T15:13:43;4.03;;;1.95;;
29662;SDS011;16578;53.266;7.920;2023-07-13T15:16:21;3.67;;;2.30;;
29662;SDS011;16578;53.266;7.920;2023-07-13T15:18:49;4.07;;;2.47;;
29662;SDS011;16578;53.266;7.920;2023-07-13T15:21:19;4.30;;;2.38;;
29662;SDS011;16578;53.266;7.920;2023-07-13T15:23:47;2.58;;;1.80;;
29662;SDS011;16578;53.266;7.920;2023-07-13T15:26:13;2.33;;;1.83;;
29662;SDS011;16578;53.266;7.920;2023-07-13T15:28:41;2.45;;;2.08;;
29662;SDS011;16578;53.266;7.920;2023-07-13T15:31:26;4.13;;;2.33;;
29662;SDS011;16578;53.266;7.920;2023-07-13T15:33:53;3.90;;;2.72;;
29662;SDS011;16578;53.266;7.920;2023-07-13T15:36:22;3.78;;;2.60;;
29662;SDS011;16578;53.266;7.920;2023-07-13T15:38:51;2.40;;;2.03;;